sensor_id;sensor_type;location;lat;lon;timestamp;P1;durP1;ratioP1;P2;durP2;ratioP2
842;SDS011;407;48.884;9.126;2023-09-18T00:00:01;6.60;;;2.30;;
842;SDS011;407;48.884;9.126;2023-09-18T00:02:27;7.87;;;2.30;;
842;SDS011;407;48.884;9.126;2023-09-18T00:04:54;6.80;;;2.03;;
842;SDS011;407;48.884;9.126;2023-09-18T00:07:20;8.27;;;2.10;;
842;SDS011;407;48.884;9.126;2023-09-18T00:09:45;7.40;;;2.00;;
842;SDS011;407;48.884;9.126;2023-09-18T00:12:11;8.03;;;2.23;;
842;SDS011;407;48.884;9.126;2023-09-18T00:14:37;7.30;;;1.67;;
842;SDS011;407;48.884;9.126;2023-09-18T00:17:03;6.07;;;2.00;;
842;SDS011;407;48.884;9.126;2023-09-18T00:19:28;6.83;;;2.13;;
842;SDS011;407;48.884;9.126;2023-09-18T00:21:54;7.32;;;2.63;;
842;SDS011;407;48.884;9.126;2023-09-18T00:24:21;6.30;;;2.10;;
842;SDS011;407;48.884;9.126;2023-09-18T00:26:47;6.33;;;1.80;;
842;SDS011;407;48.884;9.126;2023-09-18T00:29:13;7.70;;;2.15;;
842;SDS011;407;48.884;9.126;2023-09-18T00:31:39;9.23;;;2.60;;
842;SDS011;407;48.884;9.126;2023-09-18T00:34:05;5.88;;;1.85;;
842;SDS011;407;48.884;9.126;2023-09-18T00:36:30;6.80;;;2.30;;
842;SDS011;407;48.884;9.126;2023-09-18T00:38:56;5.93;;;1.90;;
842;SDS011;407;48.884;9.126;2023-09-18T00:41:21;6.85;;;2.30;;
842;SDS011;407;48.884;9.126;2023-09-18T00:43:47;6.60;;;2.30;;
842;SDS011;407;48.884;9.126;2023-09-18T00:46:12;7.40;;;2.50;;
842;SDS011;407;48.884;9.126;2023-09-18T00:48:39;6.88;;;2.53;;
842;SDS011;407;48.884;9.126;2023-09-18T00:51:05;7.20;;;2.30;;
842;SDS011;407;48.884;9.126;2023-09-18T00:53:32;6.80;;;2.20;;
842;SDS011;407;48.884;9.126;2023-09-18T00:55:57;7.85;;;2.30;;
842;SDS011;407;48.884;9.126;2023-09-18T00:58:26;8.40;;;2.50;;
842;SDS011;407;48.884;9.126;2023-09-18T01:00:52;8.07;;;2.40;;
842;SDS011;407;48.884;9.126;2023-09-18T01:03:18;7.13;;;2.80;;
842;SDS011;407;48.884;9.126;2023-09-18T01:05:46;8.52;;;2.60;;
842;SDS011;407;48.884;9.126;2023-09-18T01:08:11;8.10;;;2.30;;
842;SDS011;407;48.884;9.126;2023-09-18T01:10:40;8.00;;;2.50;;
842;SDS011;407;48.884;9.126;2023-09-18T01:13:14;6.23;;;2.00;;
842;SDS011;407;48.884;9.126;2023-09-18T01:15:51;7.20;;;2.30;;
842;SDS011;407;48.884;9.126;2023-09-18T01:18:22;6.18;;;2.13;;
842;SDS011;407;48.884;9.126;2023-09-18T01:20:48;8.40;;;2.10;;
842;SDS011;407;48.884;9.126;2023-09-18T01:23:13;6.57;;;2.17;;
842;SDS011;407;48.884;9.126;2023-09-18T01:25:39;6.10;;;2.00;;
842;SDS011;407;48.884;9.126;2023-09-18T01:28:04;7.20;;;2.00;;
842;SDS011;407;48.884;9.126;2023-09-18T01:30:30;6.97;;;2.15;;
842;SDS011;407;48.884;9.126;2023-09-18T01:32:56;8.38;;;2.70;;
842;SDS011;407;48.884;9.126;2023-09-18T01:35:23;7.00;;;2.20;;
842;SDS011;407;48.884;9.126;2023-09-18T01:37:55;8.30;;;2.20;;
842;SDS011;407;48.884;9.126;2023-09-18T01:40:21;6.30;;;2.33;;
842;SDS011;407;48.884;9.126;2023-09-18T01:42:48;6.20;;;1.80;;
842;SDS011;407;48.884;9.126;2023-09-18T01:45:14;7.50;;;2.27;;
842;SDS011;407;48.884;9.126;2023-09-18T01:47:39;7.77;;;2.27;;
842;SDS011;407;48.884;9.126;2023-09-18T01:50:05;7.37;;;2.43;;
842;SDS011;407;48.884;9.126;2023-09-18T01:52:31;6.10;;;1.90;;
842;SDS011;407;48.884;9.126;2023-09-18T01:54:56;7.65;;;2.15;;
842;SDS011;407;48.884;9.126;2023-09-18T01:57:22;5.95;;;2.00;;
842;SDS011;407;48.884;9.126;2023-09-18T01:59:47;7.05;;;2.03;;
842;SDS011;407;48.884;9.126;2023-09-18T02:02:13;6.80;;;1.73;;
842;SDS011;407;48.884;9.126;2023-09-18T02:04:38;7.70;;;1.42;;
842;SDS011;407;48.884;9.126;2023-09-18T02:07:05;5.70;;;1.50;;
842;SDS011;407;48.884;9.126;2023-09-18T02:09:30;7.05;;;1.65;;
842;SDS011;407;48.884;9.126;2023-09-18T02:11:56;7.60;;;1.50;;
842;SDS011;407;48.884;9.126;2023-09-18T02:14:22;5.70;;;1.60;;
842;SDS011;407;48.884;9.126;2023-09-18T02:16:47;6.50;;;1.80;;
842;SDS011;407;48.884;9.126;2023-09-18T02:19:14;7.70;;;1.63;;
842;SDS011;407;48.884;9.126;2023-09-18T02:21:41;15.73;;;1.85;;
842;SDS011;407;48.884;9.126;2023-09-18T02:24:06;6.45;;;1.70;;
842;SDS011;407;48.884;9.126;2023-09-18T02:26:32;8.38;;;2.10;;
842;SDS011;407;48.884;9.126;2023-09-18T02:28:59;9.43;;;1.60;;
842;SDS011;407;48.884;9.126;2023-09-18T02:31:28;8.82;;;1.75;;
842;SDS011;407;48.884;9.126;2023-09-18T02:33:53;6.43;;;1.60;;
842;SDS011;407;48.884;9.126;2023-09-18T02:36:19;8.77;;;1.90;;
842;SDS011;407;48.884;9.126;2023-09-18T02:38:44;7.37;;;1.57;;
842;SDS011;407;48.884;9.126;2023-09-18T02:41:10;6.03;;;1.70;;
842;SDS011;407;48.884;9.126;2023-09-18T02:43:36;5.90;;;1.60;;
842;SDS011;407;48.884;9.126;2023-09-18T02:46:05;6.60;;;1.70;;
842;SDS011;407;48.884;9.126;2023-09-18T02:48:30;6.82;;;2.22;;
842;SDS011;407;48.884;9.126;2023-09-18T02:50:57;8.38;;;2.10;;
842;SDS011;407;48.884;9.126;2023-09-18T02:53:26;7.55;;;1.40;;
842;SDS011;407;48.884;9.126;2023-09-18T02:55:54;9.52;;;1.83;;
842;SDS011;407;48.884;9.126;2023-09-18T02:58:21;7.30;;;2.10;;
842;SDS011;407;48.884;9.126;2023-09-18T03:00:49;8.63;;;1.50;;
842;SDS011;407;48.884;9.126;2023-09-18T03:03:15;7.88;;;1.92;;
842;SDS011;407;48.884;9.126;2023-09-18T03:05:42;6.53;;;1.60;;
842;SDS011;407;48.884;9.126;2023-09-18T03:08:08;11.67;;;2.27;;
842;SDS011;407;48.884;9.126;2023-09-18T03:10:35;7.53;;;1.70;;
842;SDS011;407;48.884;9.126;2023-09-18T03:13:02;8.70;;;2.13;;
842;SDS011;407;48.884;9.126;2023-09-18T03:15:28;7.93;;;1.60;;
842;SDS011;407;48.884;9.126;2023-09-18T03:17:54;7.28;;;1.67;;
842;SDS011;407;48.884;9.126;2023-09-18T03:20:23;8.77;;;2.00;;
842;SDS011;407;48.884;9.126;2023-09-18T03:22:53;9.95;;;2.35;;
842;SDS011;407;48.884;9.126;2023-09-18T03:25:20;7.40;;;2.10;;
842;SDS011;407;48.884;9.126;2023-09-18T03:27:47;8.03;;;2.00;;
842;SDS011;407;48.884;9.126;2023-09-18T03:30:12;8.10;;;2.60;;
842;SDS011;407;48.884;9.126;2023-09-18T03:32:40;6.75;;;1.88;;
842;SDS011;407;48.884;9.126;2023-09-18T03:35:07;8.05;;;2.60;;
842;SDS011;407;48.884;9.126;2023-09-18T03:37:34;8.32;;;2.13;;
842;SDS011;407;48.884;9.126;2023-09-18T03:40:00;6.27;;;1.83;;
842;SDS011;407;48.884;9.126;2023-09-18T03:42:27;9.77;;;2.50;;
842;SDS011;407;48.884;9.126;2023-09-18T03:44:53;10.57;;;2.05;;
842;SDS011;407;48.884;9.126;2023-09-18T03:47:18;8.05;;;1.45;;
842;SDS011;407;48.884;9.126;2023-09-18T03:49:44;5.90;;;1.65;;
842;SDS011;407;48.884;9.126;2023-09-18T03:52:09;13.07;;;2.20;;
842;SDS011;407;48.884;9.126;2023-09-18T03:54:35;7.67;;;2.00;;
842;SDS011;407;48.884;9.126;2023-09-18T03:57:00;5.40;;;1.50;;
842;SDS011;407;48.884;9.126;2023-09-18T03:59:26;8.80;;;2.17;;
842;SDS011;407;48.884;9.126;2023-09-18T04:01:51;7.20;;;1.50;;
842;SDS011;407;48.884;9.126;2023-09-18T04:04:17;8.00;;;1.90;;
842;SDS011;407;48.884;9.126;2023-09-18T04:06:42;8.27;;;1.90;;
842;SDS011;407;48.884;9.126;2023-09-18T04:09:09;7.57;;;1.80;;
842;SDS011;407;48.884;9.126;2023-09-18T04:11:35;11.30;;;2.20;;
842;SDS011;407;48.884;9.126;2023-09-18T04:14:01;7.10;;;1.67;;
842;SDS011;407;48.884;9.126;2023-09-18T04:16:28;5.03;;;1.35;;
842;SDS011;407;48.884;9.126;2023-09-18T04:18:55;7.80;;;2.00;;
842;SDS011;407;48.884;9.126;2023-09-18T04:21:21;8.80;;;2.47;;
842;SDS011;407;48.884;9.126;2023-09-18T04:23:47;7.73;;;2.07;;
842;SDS011;407;48.884;9.126;2023-09-18T04:26:12;10.33;;;1.63;;
842;SDS011;407;48.884;9.126;2023-09-18T04:28:40;6.85;;;1.52;;
842;SDS011;407;48.884;9.126;2023-09-18T04:31:06;7.87;;;1.87;;
842;SDS011;407;48.884;9.126;2023-09-18T04:33:31;8.03;;;1.70;;
842;SDS011;407;48.884;9.126;2023-09-18T04:35:57;5.37;;;1.50;;
842;SDS011;407;48.884;9.126;2023-09-18T04:38:23;10.20;;;2.70;;
842;SDS011;407;48.884;9.126;2023-09-18T04:40:48;7.07;;;2.03;;
842;SDS011;407;48.884;9.126;2023-09-18T04:43:14;6.67;;;1.67;;
842;SDS011;407;48.884;9.126;2023-09-18T04:45:39;10.00;;;1.87;;
842;SDS011;407;48.884;9.126;2023-09-18T04:48:05;8.65;;;2.45;;
842;SDS011;407;48.884;9.126;2023-09-18T04:50:31;7.90;;;2.10;;
842;SDS011;407;48.884;9.126;2023-09-18T04:52:58;7.43;;;1.52;;
842;SDS011;407;48.884;9.126;2023-09-18T04:55:24;5.80;;;2.20;;
842;SDS011;407;48.884;9.126;2023-09-18T04:57:50;10.50;;;2.28;;
842;SDS011;407;48.884;9.126;2023-09-18T05:00:15;7.50;;;1.85;;
842;SDS011;407;48.884;9.126;2023-09-18T05:02:41;14.23;;;1.77;;
842;SDS011;407;48.884;9.126;2023-09-18T05:05:07;10.75;;;2.95;;
842;SDS011;407;48.884;9.126;2023-09-18T05:07:36;8.48;;;2.00;;
842;SDS011;407;48.884;9.126;2023-09-18T05:10:02;9.93;;;2.03;;
842;SDS011;407;48.884;9.126;2023-09-18T05:12:29;6.32;;;2.05;;
842;SDS011;407;48.884;9.126;2023-09-18T05:14:55;7.68;;;2.00;;
842;SDS011;407;48.884;9.126;2023-09-18T05:17:27;10.88;;;2.30;;
842;SDS011;407;48.884;9.126;2023-09-18T05:20:09;8.38;;;1.92;;
842;SDS011;407;48.884;9.126;2023-09-18T05:22:37;8.77;;;2.45;;
842;SDS011;407;48.884;9.126;2023-09-18T05:25:02;7.30;;;1.90;;
842;SDS011;407;48.884;9.126;2023-09-18T05:27:29;5.72;;;2.08;;
842;SDS011;407;48.884;9.126;2023-09-18T05:29:55;6.00;;;1.67;;
842;SDS011;407;48.884;9.126;2023-09-18T05:32:20;8.60;;;2.30;;
842;SDS011;407;48.884;9.126;2023-09-18T05:34:46;6.23;;;1.90;;
842;SDS011;407;48.884;9.126;2023-09-18T05:37:11;8.93;;;1.80;;
842;SDS011;407;48.884;9.126;2023-09-18T05:39:37;8.83;;;2.03;;
842;SDS011;407;48.884;9.126;2023-09-18T05:42:02;7.43;;;2.07;;
842;SDS011;407;48.884;9.126;2023-09-18T05:44:28;6.63;;;1.73;;
842;SDS011;407;48.884;9.126;2023-09-18T05:46:53;8.82;;;2.25;;
842;SDS011;407;48.884;9.126;2023-09-18T05:49:19;7.47;;;2.10;;
842;SDS011;407;48.884;9.126;2023-09-18T05:51:44;16.30;;;2.25;;
842;SDS011;407;48.884;9.126;2023-09-18T05:54:12;7.80;;;2.30;;
842;SDS011;407;48.884;9.126;2023-09-18T05:56:37;8.13;;;2.00;;
842;SDS011;407;48.884;9.126;2023-09-18T05:59:03;7.63;;;1.92;;
842;SDS011;407;48.884;9.126;2023-09-18T06:01:28;7.90;;;1.80;;
842;SDS011;407;48.884;9.126;2023-09-18T06:03:54;6.20;;;1.90;;
842;SDS011;407;48.884;9.126;2023-09-18T06:06:20;6.00;;;1.60;;
842;SDS011;407;48.884;9.126;2023-09-18T06:08:45;9.50;;;1.90;;
842;SDS011;407;48.884;9.126;2023-09-18T06:11:11;12.27;;;2.00;;
842;SDS011;407;48.884;9.126;2023-09-18T06:13:36;7.00;;;1.90;;
842;SDS011;407;48.884;9.126;2023-09-18T06:16:02;7.38;;;1.92;;
842;SDS011;407;48.884;9.126;2023-09-18T06:18:32;7.50;;;1.20;;
842;SDS011;407;48.884;9.126;2023-09-18T06:20:58;5.97;;;1.75;;
842;SDS011;407;48.884;9.126;2023-09-18T06:23:23;5.70;;;1.17;;
842;SDS011;407;48.884;9.126;2023-09-18T06:25:49;7.77;;;1.40;;
842;SDS011;407;48.884;9.126;2023-09-18T06:28:20;8.03;;;1.73;;
842;SDS011;407;48.884;9.126;2023-09-18T06:30:46;7.00;;;1.40;;
842;SDS011;407;48.884;9.126;2023-09-18T06:33:12;9.50;;;1.47;;
842;SDS011;407;48.884;9.126;2023-09-18T06:35:38;6.70;;;1.90;;
842;SDS011;407;48.884;9.126;2023-09-18T06:38:04;7.13;;;1.30;;
842;SDS011;407;48.884;9.126;2023-09-18T06:40:31;6.43;;;1.30;;
842;SDS011;407;48.884;9.126;2023-09-18T06:43:00;6.45;;;1.45;;
842;SDS011;407;48.884;9.126;2023-09-18T06:45:25;4.80;;;1.30;;
842;SDS011;407;48.884;9.126;2023-09-18T06:47:52;8.00;;;1.30;;
842;SDS011;407;48.884;9.126;2023-09-18T06:50:18;6.87;;;1.40;;
842;SDS011;407;48.884;9.126;2023-09-18T06:52:44;5.65;;;1.30;;
842;SDS011;407;48.884;9.126;2023-09-18T06:55:09;5.85;;;1.45;;
842;SDS011;407;48.884;9.126;2023-09-18T06:57:35;6.38;;;1.27;;
842;SDS011;407;48.884;9.126;2023-09-18T07:00:01;7.97;;;1.57;;
842;SDS011;407;48.884;9.126;2023-09-18T07:02:26;6.23;;;1.20;;
842;SDS011;407;48.884;9.126;2023-09-18T07:04:52;5.80;;;1.20;;
842;SDS011;407;48.884;9.126;2023-09-18T07:07:18;5.85;;;1.30;;
842;SDS011;407;48.884;9.126;2023-09-18T07:09:50;7.10;;;1.60;;
842;SDS011;407;48.884;9.126;2023-09-18T07:12:16;8.97;;;1.60;;
842;SDS011;407;48.884;9.126;2023-09-18T07:14:43;4.80;;;1.00;;
842;SDS011;407;48.884;9.126;2023-09-18T07:17:09;4.95;;;0.93;;
842;SDS011;407;48.884;9.126;2023-09-18T07:19:34;6.45;;;0.98;;
842;SDS011;407;48.884;9.126;2023-09-18T07:22:00;6.45;;;1.33;;
842;SDS011;407;48.884;9.126;2023-09-18T07:24:26;5.27;;;0.97;;
842;SDS011;407;48.884;9.126;2023-09-18T07:26:51;8.30;;;1.10;;
842;SDS011;407;48.884;9.126;2023-09-18T07:29:17;7.90;;;1.00;;
842;SDS011;407;48.884;9.126;2023-09-18T07:31:43;5.67;;;1.20;;
842;SDS011;407;48.884;9.126;2023-09-18T07:34:09;8.10;;;1.20;;
842;SDS011;407;48.884;9.126;2023-09-18T07:36:35;8.10;;;1.30;;
842;SDS011;407;48.884;9.126;2023-09-18T07:39:01;4.70;;;0.90;;
842;SDS011;407;48.884;9.126;2023-09-18T07:41:29;5.53;;;1.27;;
842;SDS011;407;48.884;9.126;2023-09-18T07:43:54;8.27;;;1.23;;
842;SDS011;407;48.884;9.126;2023-09-18T07:46:22;5.27;;;0.90;;
842;SDS011;407;48.884;9.126;2023-09-18T07:48:47;6.00;;;0.70;;
842;SDS011;407;48.884;9.126;2023-09-18T07:51:13;7.83;;;1.30;;
842;SDS011;407;48.884;9.126;2023-09-18T07:53:41;8.10;;;1.45;;
842;SDS011;407;48.884;9.126;2023-09-18T07:56:07;4.95;;;0.80;;
842;SDS011;407;48.884;9.126;2023-09-18T07:58:32;7.27;;;1.17;;
842;SDS011;407;48.884;9.126;2023-09-18T08:00:58;6.45;;;1.17;;
842;SDS011;407;48.884;9.126;2023-09-18T08:03:25;5.60;;;1.10;;
842;SDS011;407;48.884;9.126;2023-09-18T08:05:51;6.50;;;0.80;;
842;SDS011;407;48.884;9.126;2023-09-18T08:08:18;5.30;;;0.70;;
842;SDS011;407;48.884;9.126;2023-09-18T08:10:45;8.45;;;1.27;;
842;SDS011;407;48.884;9.126;2023-09-18T08:13:11;5.70;;;1.30;;
842;SDS011;407;48.884;9.126;2023-09-18T08:15:37;5.30;;;1.00;;
842;SDS011;407;48.884;9.126;2023-09-18T08:18:03;6.40;;;1.10;;
842;SDS011;407;48.884;9.126;2023-09-18T08:20:28;7.73;;;1.00;;
842;SDS011;407;48.884;9.126;2023-09-18T08:22:54;7.73;;;1.07;;
842;SDS011;407;48.884;9.126;2023-09-18T08:25:19;6.33;;;1.07;;
842;SDS011;407;48.884;9.126;2023-09-18T08:27:45;5.50;;;0.87;;
842;SDS011;407;48.884;9.126;2023-09-18T08:30:12;4.30;;;0.70;;
842;SDS011;407;48.884;9.126;2023-09-18T08:32:38;5.90;;;1.00;;
842;SDS011;407;48.884;9.126;2023-09-18T08:35:05;10.80;;;1.10;;
842;SDS011;407;48.884;9.126;2023-09-18T08:37:31;5.15;;;0.98;;
842;SDS011;407;48.884;9.126;2023-09-18T08:39:57;5.18;;;1.10;;
842;SDS011;407;48.884;9.126;2023-09-18T08:42:25;4.70;;;0.90;;
842;SDS011;407;48.884;9.126;2023-09-18T08:44:56;5.78;;;0.80;;
842;SDS011;407;48.884;9.126;2023-09-18T08:47:23;4.60;;;0.60;;
842;SDS011;407;48.884;9.126;2023-09-18T08:49:49;5.00;;;1.00;;
842;SDS011;407;48.884;9.126;2023-09-18T08:52:17;7.70;;;0.70;;
842;SDS011;407;48.884;9.126;2023-09-18T08:54:43;6.25;;;0.77;;
842;SDS011;407;48.884;9.126;2023-09-18T08:57:10;5.00;;;0.70;;
842;SDS011;407;48.884;9.126;2023-09-18T08:59:37;4.55;;;0.57;;
842;SDS011;407;48.884;9.126;2023-09-18T09:02:04;4.60;;;0.85;;
842;SDS011;407;48.884;9.126;2023-09-18T09:04:30;6.22;;;0.80;;
842;SDS011;407;48.884;9.126;2023-09-18T09:06:56;8.70;;;1.30;;
842;SDS011;407;48.884;9.126;2023-09-18T09:09:24;6.47;;;0.90;;
842;SDS011;407;48.884;9.126;2023-09-18T09:11:51;4.90;;;1.00;;
842;SDS011;407;48.884;9.126;2023-09-18T09:14:17;4.50;;;0.70;;
842;SDS011;407;48.884;9.126;2023-09-18T09:16:47;4.30;;;0.60;;
842;SDS011;407;48.884;9.126;2023-09-18T09:19:15;4.30;;;0.70;;
842;SDS011;407;48.884;9.126;2023-09-18T09:21:42;4.25;;;0.70;;
842;SDS011;407;48.884;9.126;2023-09-18T09:24:09;4.90;;;0.80;;
842;SDS011;407;48.884;9.126;2023-09-18T09:26:41;5.80;;;1.00;;
842;SDS011;407;48.884;9.126;2023-09-18T09:29:14;6.00;;;1.00;;
842;SDS011;407;48.884;9.126;2023-09-18T09:31:44;4.80;;;0.80;;
842;SDS011;407;48.884;9.126;2023-09-18T09:34:16;4.20;;;0.60;;
842;SDS011;407;48.884;9.126;2023-09-18T09:36:52;6.07;;;0.90;;
842;SDS011;407;48.884;9.126;2023-09-18T09:39:18;7.70;;;0.80;;
842;SDS011;407;48.884;9.126;2023-09-18T09:41:47;4.40;;;0.80;;
842;SDS011;407;48.884;9.126;2023-09-18T09:44:14;4.20;;;0.70;;
842;SDS011;407;48.884;9.126;2023-09-18T09:46:46;4.70;;;0.80;;
842;SDS011;407;48.884;9.126;2023-09-18T09:49:16;4.05;;;0.50;;
842;SDS011;407;48.884;9.126;2023-09-18T09:51:44;4.47;;;0.60;;
842;SDS011;407;48.884;9.126;2023-09-18T09:54:10;7.97;;;1.10;;
842;SDS011;407;48.884;9.126;2023-09-18T09:56:41;5.70;;;1.33;;
842;SDS011;407;48.884;9.126;2023-09-18T09:59:08;4.50;;;0.80;;
842;SDS011;407;48.884;9.126;2023-09-18T10:01:34;6.23;;;1.03;;
842;SDS011;407;48.884;9.126;2023-09-18T10:04:03;6.80;;;0.80;;
842;SDS011;407;48.884;9.126;2023-09-18T10:06:33;4.40;;;0.75;;
842;SDS011;407;48.884;9.126;2023-09-18T10:08:59;6.40;;;0.90;;
842;SDS011;407;48.884;9.126;2023-09-18T10:11:31;4.22;;;0.63;;
842;SDS011;407;48.884;9.126;2023-09-18T10:14:04;4.40;;;0.70;;
842;SDS011;407;48.884;9.126;2023-09-18T10:16:37;4.20;;;0.80;;
842;SDS011;407;48.884;9.126;2023-09-18T10:25:29;4.50;;;1.20;;
842;SDS011;407;48.884;9.126;2023-09-18T10:27:56;7.82;;;0.93;;
842;SDS011;407;48.884;9.126;2023-09-18T10:30:23;6.53;;;0.90;;
842;SDS011;407;48.884;9.126;2023-09-18T10:32:50;4.40;;;0.90;;
842;SDS011;407;48.884;9.126;2023-09-18T10:35:16;4.97;;;1.00;;
842;SDS011;407;48.884;9.126;2023-09-18T10:37:43;4.88;;;1.23;;
842;SDS011;407;48.884;9.126;2023-09-18T10:40:10;4.75;;;1.02;;
842;SDS011;407;48.884;9.126;2023-09-18T10:42:39;5.32;;;1.00;;
842;SDS011;407;48.884;9.126;2023-09-18T10:45:09;3.97;;;0.70;;
842;SDS011;407;48.884;9.126;2023-09-18T10:47:37;5.53;;;1.30;;
842;SDS011;407;48.884;9.126;2023-09-18T10:50:05;8.30;;;1.30;;
842;SDS011;407;48.884;9.126;2023-09-18T10:52:32;4.40;;;0.80;;
842;SDS011;407;48.884;9.126;2023-09-18T10:55:00;7.30;;;1.20;;
842;SDS011;407;48.884;9.126;2023-09-18T10:57:28;4.60;;;0.93;;
842;SDS011;407;48.884;9.126;2023-09-18T10:59:59;6.30;;;0.90;;
842;SDS011;407;48.884;9.126;2023-09-18T11:02:25;4.80;;;1.10;;
842;SDS011;407;48.884;9.126;2023-09-18T11:04:53;5.47;;;0.88;;
842;SDS011;407;48.884;9.126;2023-09-18T11:07:20;5.70;;;1.00;;
842;SDS011;407;48.884;9.126;2023-09-18T11:09:47;6.50;;;1.25;;
842;SDS011;407;48.884;9.126;2023-09-18T11:12:16;4.60;;;1.10;;
842;SDS011;407;48.884;9.126;2023-09-18T11:20:17;4.80;;;0.90;;
842;SDS011;407;48.884;9.126;2023-09-18T11:22:49;4.72;;;1.00;;
842;SDS011;407;48.884;9.126;2023-09-18T11:25:38;4.60;;;1.20;;
842;SDS011;407;48.884;9.126;2023-09-18T11:28:22;4.72;;;1.05;;
842;SDS011;407;48.884;9.126;2023-09-18T11:30:52;5.97;;;0.93;;
842;SDS011;407;48.884;9.126;2023-09-18T11:33:33;6.50;;;0.90;;
842;SDS011;407;48.884;9.126;2023-09-18T11:36:07;7.70;;;0.90;;
842;SDS011;407;48.884;9.126;2023-09-18T11:38:54;5.70;;;0.90;;
842;SDS011;407;48.884;9.126;2023-09-18T11:41:25;8.70;;;1.10;;
842;SDS011;407;48.884;9.126;2023-09-18T11:43:51;6.00;;;1.47;;
842;SDS011;407;48.884;9.126;2023-09-18T11:46:18;4.90;;;1.10;;
842;SDS011;407;48.884;9.126;2023-09-18T11:48:46;4.65;;;0.98;;
842;SDS011;407;48.884;9.126;2023-09-18T11:51:15;6.30;;;0.82;;
842;SDS011;407;48.884;9.126;2023-09-18T11:53:47;4.90;;;1.00;;
842;SDS011;407;48.884;9.126;2023-09-18T11:56:14;6.00;;;1.10;;
842;SDS011;407;48.884;9.126;2023-09-18T11:58:49;4.78;;;0.85;;
842;SDS011;407;48.884;9.126;2023-09-18T12:01:17;5.10;;;0.93;;
842;SDS011;407;48.884;9.126;2023-09-18T12:03:43;4.60;;;0.80;;
842;SDS011;407;48.884;9.126;2023-09-18T12:06:10;5.60;;;0.80;;
842;SDS011;407;48.884;9.126;2023-09-18T12:08:38;5.07;;;0.80;;
842;SDS011;407;48.884;9.126;2023-09-18T12:11:05;5.13;;;0.90;;
842;SDS011;407;48.884;9.126;2023-09-18T12:13:31;5.07;;;0.88;;
842;SDS011;407;48.884;9.126;2023-09-18T12:15:58;5.10;;;1.00;;
842;SDS011;407;48.884;9.126;2023-09-18T12:18:25;6.83;;;1.10;;
842;SDS011;407;48.884;9.126;2023-09-18T12:20:53;4.20;;;0.80;;
842;SDS011;407;48.884;9.126;2023-09-18T12:23:21;5.57;;;1.00;;
842;SDS011;407;48.884;9.126;2023-09-18T12:25:47;4.80;;;0.82;;
842;SDS011;407;48.884;9.126;2023-09-18T12:28:15;6.60;;;0.90;;
842;SDS011;407;48.884;9.126;2023-09-18T12:30:41;5.70;;;0.82;;
842;SDS011;407;48.884;9.126;2023-09-18T12:33:09;4.93;;;1.00;;
842;SDS011;407;48.884;9.126;2023-09-18T12:35:35;4.90;;;0.70;;
842;SDS011;407;48.884;9.126;2023-09-18T12:38:02;4.93;;;0.80;;
842;SDS011;407;48.884;9.126;2023-09-18T12:40:39;5.03;;;0.75;;
842;SDS011;407;48.884;9.126;2023-09-18T12:43:04;4.30;;;0.70;;
842;SDS011;407;48.884;9.126;2023-09-18T12:45:31;4.50;;;1.00;;
842;SDS011;407;48.884;9.126;2023-09-18T12:47:57;5.80;;;0.80;;
842;SDS011;407;48.884;9.126;2023-09-18T12:50:24;4.57;;;0.70;;
842;SDS011;407;48.884;9.126;2023-09-18T12:52:50;5.00;;;0.80;;
842;SDS011;407;48.884;9.126;2023-09-18T12:55:25;4.53;;;0.65;;
842;SDS011;407;48.884;9.126;2023-09-18T12:57:52;4.40;;;0.80;;
842;SDS011;407;48.884;9.126;2023-09-18T13:00:19;6.28;;;0.80;;
842;SDS011;407;48.884;9.126;2023-09-18T13:02:48;4.70;;;0.80;;
842;SDS011;407;48.884;9.126;2023-09-18T13:05:19;6.50;;;0.70;;
842;SDS011;407;48.884;9.126;2023-09-18T13:07:46;5.00;;;0.80;;
842;SDS011;407;48.884;9.126;2023-09-18T13:10:12;4.70;;;0.65;;
842;SDS011;407;48.884;9.126;2023-09-18T13:12:46;6.20;;;0.80;;
842;SDS011;407;48.884;9.126;2023-09-18T13:15:14;5.50;;;0.90;;
842;SDS011;407;48.884;9.126;2023-09-18T13:17:48;5.50;;;0.85;;
842;SDS011;407;48.884;9.126;2023-09-18T13:20:18;4.80;;;0.80;;
842;SDS011;407;48.884;9.126;2023-09-18T13:22:49;4.60;;;0.80;;
842;SDS011;407;48.884;9.126;2023-09-18T13:25:20;5.55;;;0.88;;
842;SDS011;407;48.884;9.126;2023-09-18T13:28:03;4.47;;;0.70;;
842;SDS011;407;48.884;9.126;2023-09-18T13:30:33;6.50;;;1.27;;
842;SDS011;407;48.884;9.126;2023-09-18T13:33:04;5.20;;;0.83;;
842;SDS011;407;48.884;9.126;2023-09-18T13:35:32;4.40;;;0.65;;
842;SDS011;407;48.884;9.126;2023-09-18T13:37:58;4.30;;;0.60;;
842;SDS011;407;48.884;9.126;2023-09-18T13:40:24;5.10;;;1.00;;
842;SDS011;407;48.884;9.126;2023-09-18T13:42:50;5.50;;;0.95;;
842;SDS011;407;48.884;9.126;2023-09-18T13:45:15;5.30;;;1.00;;
842;SDS011;407;48.884;9.126;2023-09-18T13:47:41;4.45;;;0.60;;
842;SDS011;407;48.884;9.126;2023-09-18T13:50:08;5.60;;;0.70;;
842;SDS011;407;48.884;9.126;2023-09-18T13:52:34;4.63;;;0.70;;
842;SDS011;407;48.884;9.126;2023-09-18T13:55:01;4.60;;;0.70;;
842;SDS011;407;48.884;9.126;2023-09-18T13:57:30;4.80;;;0.90;;
842;SDS011;407;48.884;9.126;2023-09-18T13:59:59;4.40;;;0.80;;
842;SDS011;407;48.884;9.126;2023-09-18T14:02:32;5.30;;;1.00;;
842;SDS011;407;48.884;9.126;2023-09-18T14:04:57;4.40;;;0.70;;
842;SDS011;407;48.884;9.126;2023-09-18T14:07:23;4.50;;;0.70;;
842;SDS011;407;48.884;9.126;2023-09-18T14:09:49;5.10;;;1.00;;
842;SDS011;407;48.884;9.126;2023-09-18T14:12:15;4.38;;;0.70;;
842;SDS011;407;48.884;9.126;2023-09-18T14:14:41;4.50;;;0.70;;
842;SDS011;407;48.884;9.126;2023-09-18T14:17:07;5.00;;;0.88;;
842;SDS011;407;48.884;9.126;2023-09-18T14:19:33;4.50;;;0.90;;
842;SDS011;407;48.884;9.126;2023-09-18T14:21:59;6.07;;;0.87;;
842;SDS011;407;48.884;9.126;2023-09-18T14:24:29;5.50;;;0.97;;
842;SDS011;407;48.884;9.126;2023-09-18T14:26:55;4.80;;;1.00;;
842;SDS011;407;48.884;9.126;2023-09-18T14:29:21;6.30;;;0.90;;
842;SDS011;407;48.884;9.126;2023-09-18T14:31:47;4.80;;;0.90;;
842;SDS011;407;48.884;9.126;2023-09-18T14:34:12;4.60;;;0.70;;
842;SDS011;407;48.884;9.126;2023-09-18T14:36:38;5.60;;;0.85;;
842;SDS011;407;48.884;9.126;2023-09-18T14:39:05;4.95;;;0.70;;
842;SDS011;407;48.884;9.126;2023-09-18T14:41:35;4.63;;;0.80;;
842;SDS011;407;48.884;9.126;2023-09-18T14:44:01;4.50;;;0.80;;
842;SDS011;407;48.884;9.126;2023-09-18T14:46:28;6.30;;;1.35;;
842;SDS011;407;48.884;9.126;2023-09-18T14:48:54;4.90;;;0.80;;
842;SDS011;407;48.884;9.126;2023-09-18T14:51:19;4.72;;;0.80;;
842;SDS011;407;48.884;9.126;2023-09-18T14:53:45;4.70;;;0.70;;
842;SDS011;407;48.884;9.126;2023-09-18T14:56:11;6.00;;;0.85;;
842;SDS011;407;48.884;9.126;2023-09-18T14:58:36;4.55;;;0.77;;
842;SDS011;407;48.884;9.126;2023-09-18T15:01:02;5.70;;;1.00;;
842;SDS011;407;48.884;9.126;2023-09-18T15:03:28;4.90;;;0.90;;
842;SDS011;407;48.884;9.126;2023-09-18T15:05:53;4.80;;;0.70;;
842;SDS011;407;48.884;9.126;2023-09-18T15:08:20;4.40;;;0.70;;
842;SDS011;407;48.884;9.126;2023-09-18T15:10:46;5.40;;;0.80;;
842;SDS011;407;48.884;9.126;2023-09-18T15:13:12;4.72;;;0.90;;
842;SDS011;407;48.884;9.126;2023-09-18T15:15:39;5.20;;;1.00;;
842;SDS011;407;48.884;9.126;2023-09-18T15:18:05;5.40;;;1.00;;
842;SDS011;407;48.884;9.126;2023-09-18T15:20:30;5.10;;;0.90;;
842;SDS011;407;48.884;9.126;2023-09-18T15:22:57;4.82;;;0.90;;
842;SDS011;407;48.884;9.126;2023-09-18T15:25:23;5.15;;;0.80;;
842;SDS011;407;48.884;9.126;2023-09-18T15:27:48;4.50;;;0.60;;
842;SDS011;407;48.884;9.126;2023-09-18T15:30:14;4.30;;;0.60;;
842;SDS011;407;48.884;9.126;2023-09-18T15:35:15;6.20;;;0.80;;
842;SDS011;407;48.884;9.126;2023-09-18T15:37:41;4.63;;;0.80;;
842;SDS011;407;48.884;9.126;2023-09-18T15:40:07;6.20;;;0.88;;
842;SDS011;407;48.884;9.126;2023-09-18T15:42:35;4.60;;;0.73;;
842;SDS011;407;48.884;9.126;2023-09-18T15:45:01;5.70;;;0.60;;
842;SDS011;407;48.884;9.126;2023-09-18T15:47:27;4.70;;;0.80;;
842;SDS011;407;48.884;9.126;2023-09-18T15:49:52;5.50;;;0.70;;
842;SDS011;407;48.884;9.126;2023-09-18T15:52:18;6.33;;;0.90;;
842;SDS011;407;48.884;9.126;2023-09-18T15:54:43;6.20;;;1.10;;
842;SDS011;407;48.884;9.126;2023-09-18T15:57:09;4.50;;;0.80;;